Time;durP1;ratioP1;P1;durP2;ratioP2;P2;SDS_P1;SDS_P2;PMS_P1;PMS_P2;Temp;Humidity;BMP_temperature;BMP_pressure;BME280_temperature;BME280_humidity;BME280_pressure;Samples;Min_cycle;Max_cycle;Signal;HPM_P1;HPM_P2
2023/07/22 00:00:18;;;;;;;3.13;1.50;;;;;;;15.47;100.00;100326.13;5157463;28;20037;-74
2023/07/22 00:02:49;;;;;;;5.05;1.50;;;;;;;15.43;100.00;100327.25;5181471;28;20438;-71
2023/07/22 00:05:23;;;;;;;3.17;1.70;;;;;;;15.35;100.00;100332.13;5176514;28;20112;-73
2023/07/22 00:07:53;;;;;;;3.63;1.80;;;;;;;15.48;100.00;100338.34;5160414;28;20020;-73
2023/07/22 00:10:23;;;;;;;2.78;1.80;;;;;;;15.33;100.00;100330.53;5182236;28;20552;-73
2023/07/22 00:12:54;;;;;;;2.53;1.52;;;;;;;15.27;100.00;100334.31;5179563;28;20022;-74
2023/07/22 00:15:25;;;;;;;3.42;1.88;;;;;;;15.25;100.00;100333.56;5173135;28;20578;-74
2023/07/22 00:17:55;;;;;;;4.00;2.15;;;;;;;15.16;100.00;100334.09;5179036;28;20324;-73
2023/07/22 00:20:26;;;;;;;3.00;1.90;;;;;;;15.11;100.00;100336.16;5180552;28;20505;-74
2023/07/22 00:22:56;;;;;;;5.18;2.10;;;;;;;15.09;100.00;100331.91;5173749;28;20487;-74
2023/07/22 00:25:27;;;;;;;6.20;2.17;;;;;;;15.01;100.00;100340.22;5173830;28;20022;-72
2023/07/22 00:27:57;;;;;;;4.18;2.58;;;;;;;15.03;100.00;100340.16;5153435;28;20033;-74
2023/07/22 00:30:28;;;;;;;5.45;2.75;;;;;;;15.02;100.00;100344.56;5174749;28;20029;-73
2023/07/22 00:32:58;;;;;;;8.85;2.78;;;;;;;15.09;100.00;100339.78;5173167;28;20494;-74
2023/07/22 00:35:28;;;;;;;5.63;2.80;;;;;;;15.15;100.00;100344.72;5176350;28;20032;-73
2023/07/22 00:38:00;;;;;;;5.00;2.70;;;;;;;15.13;100.00;100339.53;5154256;28;20091;-74
2023/07/22 00:40:31;;;;;;;5.28;2.70;;;;;;;15.15;100.00;100340.28;5183274;28;20387;-73
2023/07/22 00:43:02;;;;;;;7.55;2.92;;;;;;;15.22;100.00;100346.88;5180301;28;20084;-74
2023/07/22 00:45:32;;;;;;;4.57;2.80;;;;;;;15.11;100.00;100335.28;5175057;28;20479;-73
2023/07/22 00:48:05;;;;;;;5.25;3.05;;;;;;;15.15;100.00;100340.28;5156403;28;20026;-74
2023/07/22 00:50:36;;;;;;;4.97;2.78;;;;;;;15.24;100.00;100344.19;5187530;28;20034;-73
2023/07/22 00:53:06;;;;;;;5.93;2.90;;;;;;;15.31;100.00;100346.41;5182261;28;20048;-74
2023/07/22 00:55:40;;;;;;;6.60;3.10;;;;;;;15.25;100.00;100351.13;5183850;28;20037;-74
2023/07/22 00:58:11;;;;;;;5.43;2.78;;;;;;;15.21;100.00;100339.94;5177313;28;20025;-74
2023/07/22 01:00:41;;;;;;;6.70;3.13;;;;;;;15.14;100.00;100345.63;5194623;23;20038;-78
2023/07/22 01:03:12;;;;;;;5.82;3.42;;;;;;;15.16;100.00;100335.91;5178938;28;20052;-78
2023/07/22 01:05:43;;;;;;;7.38;3.60;;;;;;;15.07;100.00;100334.63;5180107;28;20380;-75
2023/07/22 01:08:13;;;;;;;7.85;3.58;;;;;;;14.91;100.00;100341.72;5186205;28;20083;-78
2023/07/22 01:10:44;;;;;;;4.93;2.90;;;;;;;14.90;100.00;100342.66;5192259;28;20395;-77
2023/07/22 01:13:14;;;;;;;6.00;3.50;;;;;;;14.90;100.00;100334.75;5186074;28;20544;-78
2023/07/22 01:15:45;;;;;;;6.28;3.13;;;;;;;14.90;100.00;100342.66;5180778;28;20102;-77
2023/07/22 01:18:15;;;;;;;7.68;3.83;;;;;;;14.87;100.00;100334.91;5169402;28;20034;-78
2023/07/22 01:20:46;;;;;;;5.97;3.40;;;;;;;14.79;100.00;100343.34;5171734;28;20033;-77
2023/07/22 01:23:17;;;;;;;7.18;3.50;;;;;;;14.80;100.00;100343.22;5170393;28;20062;-78
2023/07/22 01:25:47;;;;;;;7.45;4.10;;;;;;;14.66;100.00;100344.94;5154236;28;20028;-77
2023/07/22 01:28:20;;;;;;;6.95;4.07;;;;;;;14.74;100.00;100343.59;5162859;28;20026;-78
2023/07/22 01:30:52;;;;;;;7.78;3.72;;;;;;;14.86;100.00;100351.63;5165631;28;20027;-78
2023/07/22 01:33:22;;;;;;;7.85;4.00;;;;;;;14.79;100.00;100349.44;5166329;28;20030;-75
2023/07/22 01:35:53;;;;;;;6.60;3.80;;;;;;;14.76;100.00;100354.88;5162979;28;20035;-78
2023/07/22 01:38:23;;;;;;;8.55;4.38;;;;;;;14.69;100.00;100356.16;5156590;28;20032;-76
2023/07/22 01:40:54;;;;;;;8.30;4.37;;;;;;;14.71;100.00;100358.69;5165962;28;20156;-76
2023/07/22 01:43:24;;;;;;;7.63;4.50;;;;;;;14.79;100.00;100354.69;5173161;28;20293;-76
2023/07/22 01:45:54;;;;;;;12.35;4.70;;;;;;;14.78;100.00;100354.78;5158526;28;20282;-77
2023/07/22 01:48:25;;;;;;;9.13;4.93;;;;;;;14.82;100.00;100353.69;5154144;28;20084;-77
2023/07/22 01:50:55;;;;;;;8.70;4.67;;;;;;;14.80;100.00;100352.91;5165639;28;20488;-77
2023/07/22 01:53:25;;;;;;;10.18;4.57;;;;;;;14.76;100.00;100357.50;5169562;28;20268;-77
2023/07/22 01:55:55;;;;;;;8.60;4.45;;;;;;;14.75;100.00;100354.97;5162030;28;20034;-77
2023/07/22 01:58:26;;;;;;;8.15;4.70;;;;;;;14.71;100.00;100363.94;5166637;28;20026;-75
2023/07/22 02:00:56;;;;;;;8.55;4.78;;;;;;;14.71;100.00;100353.41;5163285;28;20099;-77
2023/07/22 02:03:27;;;;;;;8.30;4.72;;;;;;;14.79;100.00;100361.75;5166061;28;20038;-77
2023/07/22 02:06:04;;;;;;;9.85;4.95;;;;;;;14.74;100.00;100361.16;5163704;28;20116;-77
2023/07/22 02:08:35;;;;;;;9.07;4.80;;;;;;;14.70;100.00;100364.88;5155531;28;20091;-77
2023/07/22 02:11:08;;;;;;;9.38;4.55;;;;;;;14.65;100.00;100366.94;5174808;28;20021;-77
2023/07/22 02:13:38;;;;;;;12.95;5.10;;;;;;;14.67;100.00;100358.03;5168381;28;20029;-77
2023/07/22 02:16:11;;;;;;;9.45;4.38;;;;;;;14.69;100.00;100360.56;5166070;28;20034;-77
2023/07/22 02:18:42;;;;;;;8.65;4.55;;;;;;;14.65;100.00;100365.16;5185349;28;20030;-77
2023/07/22 02:21:12;;;;;;;6.68;4.07;;;;;;;14.64;100.00;100366.09;5196328;28;20037;-77
2023/07/22 02:23:42;;;;;;;7.50;4.40;;;;;;;14.56;100.00;100370.09;5165502;28;20064;-77
2023/07/22 02:26:13;;;;;;;9.00;4.68;;;;;;;14.47;100.00;100366.19;5204968;28;20397;-77
2023/07/22 02:28:43;;;;;;;10.43;4.85;;;;;;;14.51;100.00;100374.72;5157394;28;20037;-77
2023/07/22 02:31:13;;;;;;;11.30;4.82;;;;;;;14.45;100.00;100372.44;5191632;28;20509;-77
2023/07/22 02:33:44;;;;;;;11.82;4.85;;;;;;;14.44;100.00;100376.84;5167964;28;20075;-77
2023/07/22 02:36:14;;;;;;;10.82;4.75;;;;;;;14.43;100.00;100374.31;5179202;28;20023;-77
2023/07/22 02:38:44;;;;;;;7.22;4.30;;;;;;;14.29;100.00;100380.28;5179602;28;20034;-77
2023/07/22 02:41:15;;;;;;;9.65;4.60;;;;;;;14.38;100.00;100376.31;5191545;28;20026;-77
2023/07/22 02:43:45;;;;;;;10.20;4.93;;;;;;;14.30;100.00;100383.78;5172386;28;20030;-77
2023/07/22 02:46:15;;;;;;;8.73;4.83;;;;;;;14.32;100.00;100376.66;5204113;28;20222;-77
2023/07/22 02:48:45;;;;;;;8.05;4.35;;;;;;;14.29;100.00;100380.28;5163027;28;20478;-77
2023/07/22 02:51:16;;;;;;;7.43;4.20;;;;;;;14.27;100.00;100382.16;5180550;28;20083;-77
2023/07/22 02:53:46;;;;;;;8.63;4.70;;;;;;;14.15;100.00;100380.16;5197045;28;20039;-77
2023/07/22 02:56:17;;;;;;;12.45;5.03;;;;;;;14.10;100.00;100387.41;5186787;28;20268;-76
2023/07/22 02:58:47;;;;;;;11.70;4.97;;;;;;;14.12;100.00;100400.50;5167517;28;20062;-77
2023/07/22 03:01:18;;;;;;;8.98;4.97;;;;;;;14.07;100.00;100392.00;5182611;28;20027;-77
2023/07/22 03:03:49;;;;;;;8.20;4.05;;;;;;;14.19;100.00;100394.00;5173034;28;20040;-75
2023/07/22 03:06:19;;;;;;;10.57;4.72;;;;;;;14.02;100.00;100394.00;5202717;28;20175;-76
2023/07/22 03:08:51;;;;;;;8.85;4.50;;;;;;;14.00;100.00;100390.63;5176686;28;20055;-76
2023/07/22 03:11:24;;;;;;;7.90;4.38;;;;;;;14.08;100.00;100389.28;5196229;28;20024;-77
2023/07/22 03:13:55;;;;;;;7.70;4.43;;;;;;;13.96;100.00;100395.22;5180222;28;20078;-74
2023/07/22 03:16:25;;;;;;;9.63;4.60;;;;;;;13.84;100.00;100400.22;5190670;28;20030;-77
2023/07/22 03:18:55;;;;;;;7.80;4.40;;;;;;;13.91;100.00;100404.25;5174794;28;20037;-74
2023/07/22 03:21:26;;;;;;;9.82;4.68;;;;;;;14.00;100.00;100414.28;5186957;28;20030;-77
2023/07/22 03:23:56;;;;;;;7.43;4.30;;;;;;;13.96;100.00;100404.84;5185131;28;20024;-74
2023/07/22 03:26:26;;;;;;;9.25;4.50;;;;;;;14.00;100.00;100416.91;5168299;28;20022;-75
2023/07/22 03:28:56;;;;;;;8.70;4.47;;;;;;;14.01;100.00;100419.47;5190021;28;20117;-74
2023/07/22 03:31:27;;;;;;;9.23;4.45;;;;;;;14.15;100.00;100416.09;5180135;28;20081;-77
2023/07/22 03:33:58;;;;;;;7.07;3.90;;;;;;;14.26;100.00;100411.16;5177249;28;20246;-74
2023/07/22 03:36:28;;;;;;;10.13;4.50;;;;;;;14.21;100.00;100411.41;5182469;28;20117;-75
2023/07/22 03:38:59;;;;;;;9.73;4.63;;;;;;;14.18;100.00;100415.97;5176976;28;20027;-74
2023/07/22 03:41:30;;;;;;;9.57;4.15;;;;;;;14.22;100.00;100417.53;5190204;28;20026;-77
2023/07/22 03:44:00;;;;;;;8.13;4.63;;;;;;;14.31;100.00;100417.88;5178153;28;20126;-77
2023/07/22 03:46:30;;;;;;;7.20;3.88;;;;;;;14.38;100.00;100418.38;5194621;28;20095;-75
2023/07/22 03:49:01;;;;;;;8.43;4.25;;;;;;;14.39;100.00;100420.09;5169964;28;20038;-76
2023/07/22 03:51:31;;;;;;;10.85;4.50;;;;;;;14.41;100.00;100419.06;5168309;28;20596;-75
2023/07/22 03:54:01;;;;;;;12.23;5.18;;;;;;;14.55;100.00;100420.97;5183514;28;20399;-77
2023/07/22 03:56:31;;;;;;;9.27;4.60;;;;;;;14.57;100.00;100413.88;5188273;28;20083;-74
2023/07/22 03:59:02;;;;;;;12.90;4.63;;;;;;;14.64;100.00;100420.47;5188863;28;20026;-77
2023/07/22 04:01:32;;;;;;;9.63;4.57;;;;;;;14.63;100.00;100414.34;5194881;28;20042;-77
2023/07/22 04:04:02;;;;;;;11.05;4.35;;;;;;;14.63;100.00;100418.78;5186042;28;20114;-77
2023/07/22 04:06:33;;;;;;;9.25;4.70;;;;;;;14.67;100.00;100420.31;5178731;28;20047;-75
2023/07/22 04:09:03;;;;;;;10.55;4.00;;;;;;;14.82;100.00;100408.94;5174928;28;20026;-77
2023/07/22 04:11:33;;;;;;;10.75;4.50;;;;;;;14.73;100.00;100409.47;5173573;28;20022;-77
2023/07/22 04:14:04;;;;;;;9.57;4.40;;;;;;;14.78;100.00;100415.31;5182593;28;20021;-77
2023/07/22 04:16:34;;;;;;;9.02;4.57;;;;;;;14.73;100.00;100420.81;5182590;28;20395;-75
2023/07/22 04:19:04;;;;;;;7.45;4.30;;;;;;;14.97;100.00;100420.31;5186732;28;20023;-77
2023/07/22 04:21:35;;;;;;;10.00;4.35;;;;;;;14.87;100.00;100416.47;5172938;28;20034;-77
2023/07/22 04:24:06;;;;;;;11.23;4.70;;;;;;;14.90;100.00;100426.88;5173123;28;20487;-78
2023/07/22 04:26:36;;;;;;;9.73;4.60;;;;;;;15.01;100.00;100424.47;5183305;28;20457;-76
2023/07/22 04:29:06;;;;;;;8.68;4.43;;;;;;;15.08;100.00;100428.47;5179782;28;20120;-77
2023/07/22 04:31:37;;;;;;;8.65;4.35;;;;;;;15.24;100.00;100431.06;5188032;28;20034;-77
2023/07/22 04:34:07;;;;;;;9.10;4.15;;;;;;;15.49;100.00;100424.34;5164577;28;20088;-77
2023/07/22 04:36:38;;;;;;;11.27;4.60;;;;;;;15.60;100.00;100426.34;5180952;28;20044;-77
2023/07/22 04:39:09;;;;;;;11.38;4.40;;;;;;;15.79;100.00;100426.97;5173989;28;20025;-77
2023/07/22 04:41:39;;;;;;;7.70;4.18;;;;;;;15.90;100.00;100430.66;5179685;28;20021;-78
2023/07/22 04:44:09;;;;;;;7.72;4.13;;;;;;;15.78;100.00;100420.00;5182564;28;20040;-77
2023/07/22 04:46:40;;;;;;;7.75;4.15;;;;;;;15.51;100.00;100426.91;5169196;28;20238;-77
2023/07/22 04:49:11;;;;;;;8.70;4.45;;;;;;;15.51;100.00;100433.00;5163360;28;20025;-77
2023/07/22 04:51:41;;;;;;;9.05;4.60;;;;;;;15.63;100.00;100432.28;5165333;28;20048;-77
2023/07/22 04:54:11;;;;;;;10.07;4.18;;;;;;;15.62;100.00;100429.75;5165772;28;20030;-77
2023/07/22 04:56:42;;;;;;;8.40;3.92;;;;;;;16.86;100.00;100436.09;5171145;28;20060;-77
2023/07/22 04:59:14;;;;;;;7.10;3.85;;;;;;;17.88;92.19;100424.00;5168135;28;20033;-77
2023/07/22 05:01:44;;;;;;;8.43;3.80;;;;;;;19.20;84.54;100426.00;5168496;28;20574;-78
2023/07/22 05:04:15;;;;;;;8.33;3.80;;;;;;;19.52;83.50;100427.13;5170005;28;20041;-78
2023/07/22 05:06:45;;;;;;;7.73;3.27;;;;;;;20.69;78.98;100433.91;5169020;28;20284;-77
2023/07/22 05:09:15;;;;;;;8.82;3.67;;;;;;;20.43;78.61;100437.75;5169821;28;20276;-78
2023/07/22 05:11:46;;;;;;;9.20;3.50;;;;;;;21.75;70.58;100429.56;5168893;28;20463;-78
2023/07/22 05:14:16;;;;;;;8.25;3.50;;;;;;;21.93;71.34;100430.69;5166067;28;20163;-78
2023/07/22 05:16:46;;;;;;;7.47;3.50;;;;;;;21.76;70.20;100424.09;5169247;28;20090;-78
2023/07/22 05:19:16;;;;;;;7.22;3.63;;;;;;;21.15;71.28;100442.56;5163407;28;20285;-78
2023/07/22 05:21:47;;;;;;;6.60;3.47;;;;;;;20.53;74.14;100438.72;5170712;28;20064;-78
2023/07/22 05:24:17;;;;;;;7.53;3.43;;;;;;;21.69;69.88;100438.06;5174287;28;20305;-78
2023/07/22 05:26:47;;;;;;;5.93;3.08;;;;;;;22.19;67.77;100431.97;5171199;28;20791;-75
2023/07/22 05:29:17;;;;;;;6.30;3.20;;;;;;;22.67;67.21;100431.28;5172482;28;20018;-78
2023/07/22 05:31:48;;;;;;;5.50;3.00;;;;;;;21.94;68.54;100440.38;5172955;28;20652;-75
2023/07/22 05:34:18;;;;;;;7.07;2.93;;;;;;;21.98;69.87;100445.31;5156308;28;20291;-78
2023/07/22 05:36:48;;;;;;;4.57;2.63;;;;;;;21.92;69.69;100444.97;5169604;28;20265;-75
2023/07/22 05:39:18;;;;;;;4.57;2.80;;;;;;;21.83;70.40;100445.72;5168492;28;20362;-78
2023/07/22 05:41:49;;;;;;;5.73;3.10;;;;;;;22.73;67.72;100444.94;5170159;28;20471;-76
2023/07/22 05:44:19;;;;;;;6.57;2.97;;;;;;;23.46;65.89;100439.22;5175954;28;20311;-78
2023/07/22 05:46:50;;;;;;;6.88;3.00;;;;;;;22.46;67.12;100445.63;5172411;28;20487;-77
2023/07/22 05:49:20;;;;;;;5.67;3.10;;;;;;;22.43;68.98;100452.03;5173838;28;20044;-78
2023/07/22 05:51:50;;;;;;;4.75;2.72;;;;;;;24.19;64.78;100447.53;5169781;28;20803;-78
2023/07/22 05:54:21;;;;;;;7.60;3.42;;;;;;;23.27;65.04;100450.72;5170002;28;20125;-78
2023/07/22 05:56:51;;;;;;;5.35;2.92;;;;;;;21.16;71.28;100465.50;5171529;28;20129;-77
2023/07/22 05:59:22;;;;;;;6.90;3.30;;;;;;;22.09;67.39;100463.03;5168215;28;20038;-78
2023/07/22 06:01:52;;;;;;;5.53;3.10;;;;;;;21.57;70.05;100460.34;5168787;28;20304;-77
2023/07/22 06:04:23;;;;;;;9.45;3.50;;;;;;;22.00;68.96;100456.66;5162035;28;20796;-77
2023/07/22 06:06:53;;;;;;;6.35;3.55;;;;;;;21.01;70.87;100472.06;5163727;28;20061;-76
2023/07/22 06:09:24;;;;;;;4.85;2.63;;;;;;;22.04;70.08;100455.44;5151537;28;20030;-77
2023/07/22 06:11:54;;;;;;;4.85;2.50;;;;;;;21.53;72.24;100464.19;5162549;28;20546;-78
2023/07/22 06:14:24;;;;;;;6.37;3.33;;;;;;;21.37;72.00;100461.13;5157184;28;20365;-78
2023/07/22 06:16:54;;;;;;;8.23;3.23;;;;;;;21.43;72.62;100468.59;5140348;28;20405;-77
2023/07/22 06:19:25;;;;;;;7.00;3.30;;;;;;;21.98;71.51;100465.75;5164936;28;20284;-78
2023/07/22 06:21:55;;;;;;;7.07;3.43;;;;;;;21.31;71.96;100474.91;5162022;28;20034;-77
2023/07/22 06:24:25;;;;;;;6.13;3.25;;;;;;;21.84;70.18;100464.25;5155110;28;20639;-77
2023/07/22 06:26:56;;;;;;;6.67;3.30;;;;;;;21.69;70.40;100475.31;5164643;28;20130;-77
2023/07/22 06:29:26;;;;;;;7.05;3.38;;;;;;;21.69;70.48;100472.63;5172439;28;20281;-77
2023/07/22 06:31:56;;;;;;;5.38;3.10;;;;;;;20.62;73.88;100469.88;5161860;28;20038;-77
2023/07/22 06:34:27;;;;;;;7.70;3.47;;;;;;;20.15;74.74;100480.66;5157929;28;20381;-78
2023/07/22 06:36:57;;;;;;;7.25;3.15;;;;;;;20.24;75.44;100477.31;5157686;28;20285;-77
2023/07/22 06:39:28;;;;;;;8.00;3.20;;;;;;;20.10;76.22;100479.34;5159704;28;20609;-77
2023/07/22 06:41:58;;;;;;;6.53;3.60;;;;;;;19.87;78.63;100481.03;5160759;28;20277;-77
2023/07/22 06:44:29;;;;;;;6.25;3.28;;;;;;;19.85;78.00;100477.66;5162464;28;20029;-77
2023/07/22 06:46:59;;;;;;;10.07;3.90;;;;;;;20.39;76.43;100484.09;5163999;28;20030;-77
2023/07/22 06:49:29;;;;;;;6.70;3.42;;;;;;;20.41;73.00;100486.63;5160734;28;20306;-77
2023/07/22 06:52:01;;;;;;;7.30;3.85;;;;;;;19.72;76.21;100489.28;5164312;28;20504;-77
2023/07/22 06:54:31;;;;;;;6.40;3.28;;;;;;;20.11;76.31;100489.00;5162440;28;20108;-74
2023/07/22 06:57:02;;;;;;;8.77;3.60;;;;;;;19.80;76.12;100489.56;5156042;28;20014;-77
2023/07/22 06:59:32;;;;;;;6.43;3.38;;;;;;;19.87;77.65;100481.03;5154380;28;20081;-77
2023/07/22 07:02:04;;;;;;;6.55;3.55;;;;;;;19.59;78.47;100485.88;5199743;22;20045;-74
2023/07/22 07:04:35;;;;;;;5.88;3.35;;;;;;;20.01;77.64;100483.50;5165653;28;20236;-73
2023/07/22 07:07:05;;;;;;;8.48;3.70;;;;;;;19.65;77.18;100486.22;5158691;28;20038;-72
2023/07/22 07:09:35;;;;;;;15.38;3.67;;;;;;;20.32;75.42;100471.41;5149460;28;20483;-74
2023/07/22 07:12:07;;;;;;;11.07;3.80;;;;;;;21.21;73.46;100468.66;5143466;28;20282;-74
2023/07/22 07:14:37;;;;;;;7.00;3.40;;;;;;;21.58;71.83;100468.19;5155543;28;20294;-74
2023/07/22 07:17:08;;;;;;;9.33;3.30;;;;;;;21.92;70.84;100464.44;5141487;28;20075;-74
2023/07/22 07:19:38;;;;;;;6.25;2.92;;;;;;;22.30;69.43;100467.38;5159852;28;20639;-74
2023/07/22 07:22:08;;;;;;;8.00;3.65;;;;;;;21.27;71.11;100470.81;5163178;28;20049;-74
2023/07/22 07:24:38;;;;;;;6.20;2.97;;;;;;;21.12;71.73;100464.94;5141673;28;20070;-75
2023/07/22 07:27:09;;;;;;;6.63;3.38;;;;;;;21.28;71.02;100473.38;5145773;28;20313;-75
2023/07/22 07:29:39;;;;;;;6.07;3.05;;;;;;;20.72;73.58;100476.16;5162742;28;20050;-74
2023/07/22 07:32:09;;;;;;;5.93;3.13;;;;;;;21.58;72.68;100475.31;5160292;28;20022;-75
2023/07/22 07:34:40;;;;;;;7.47;3.50;;;;;;;22.06;71.51;100473.94;5160178;28;20310;-75
2023/07/22 07:37:10;;;;;;;5.18;3.20;;;;;;;21.55;70.83;100473.75;5156619;28;20038;-73
2023/07/22 07:39:40;;;;;;;6.53;3.53;;;;;;;22.54;69.14;100461.78;5164306;28;20027;-75
2023/07/22 07:42:11;;;;;;;6.05;3.22;;;;;;;23.20;67.29;100464.75;5166183;28;20289;-74
2023/07/22 07:44:41;;;;;;;4.93;3.17;;;;;;;23.13;66.16;100477.78;5165225;28;20543;-74
2023/07/22 07:47:11;;;;;;;6.30;3.60;;;;;;;22.35;66.54;100477.63;5166431;28;20034;-74
2023/07/22 07:49:41;;;;;;;8.23;3.10;;;;;;;21.19;69.35;100487.38;5154862;28;20327;-74
2023/07/22 07:52:12;;;;;;;6.38;3.05;;;;;;;21.17;72.99;100483.16;5164564;28;20638;-74
2023/07/22 07:54:42;;;;;;;8.63;3.53;;;;;;;20.97;72.57;100497.19;5164457;28;20080;-75
2023/07/22 07:57:12;;;;;;;6.43;3.47;;;;;;;20.76;73.22;100485.56;5168853;28;20026;-72
2023/07/22 07:59:43;;;;;;;7.07;3.63;;;;;;;20.10;76.33;100498.75;5162132;28;20091;-71
2023/07/22 08:02:13;;;;;;;6.80;3.83;;;;;;;20.38;74.98;100495.69;5168012;28;20090;-74
2023/07/22 08:04:43;;;;;;;6.83;3.57;;;;;;;20.25;74.05;100496.72;5164846;28;20900;-72
2023/07/22 08:07:16;;;;;;;8.15;3.70;;;;;;;20.16;74.99;100502.75;5165133;28;20288;-73
2023/07/22 08:09:52;;;;;;;5.80;3.35;;;;;;;20.40;75.14;100501.72;5165257;28;20403;-73
2023/07/22 08:12:23;;;;;;;5.07;3.20;;;;;;;20.32;76.32;100503.28;5167466;28;20025;-72
2023/07/22 08:14:53;;;;;;;7.47;3.58;;;;;;;20.65;75.98;100506.81;5149437;28;20034;-73
2023/07/22 08:17:24;;;;;;;10.40;3.72;;;;;;;20.31;77.68;100498.94;5165520;28;20113;-72
2023/07/22 08:19:54;;;;;;;7.30;3.72;;;;;;;21.25;75.12;100491.38;5166585;28;20083;-74
2023/07/22 08:22:24;;;;;;;6.30;3.30;;;;;;;22.19;71.28;100495.88;5166489;28;20096;-73
2023/07/22 08:24:54;;;;;;;5.63;2.90;;;;;;;22.19;68.08;100503.88;5166249;28;20098;-73
2023/07/22 08:27:25;;;;;;;6.03;3.38;;;;;;;22.27;69.35;100499.56;5163322;28;20283;-72
2023/07/22 08:29:55;;;;;;;5.97;3.30;;;;;;;22.70;67.83;100497.63;5165431;28;20038;-74
2023/07/22 08:32:25;;;;;;;7.78;3.60;;;;;;;21.93;69.36;100518.53;5166532;28;20723;-73
2023/07/22 08:34:55;;;;;;;7.47;3.60;;;;;;;22.68;66.72;100511.09;5173130;28;20026;-74
2023/07/22 08:37:26;;;;;;;6.30;3.42;;;;;;;23.05;65.11;100506.91;5167661;28;20774;-73
2023/07/22 08:39:56;;;;;;;5.33;2.90;;;;;;;22.03;70.19;100506.97;5165549;28;20088;-74
2023/07/22 08:42:29;;;;;;;5.50;3.65;;;;;;;21.63;70.61;100519.25;5166773;28;20926;-74
2023/07/22 08:45:01;;;;;;;5.85;3.40;;;;;;;21.15;70.87;100525.81;5165720;28;20026;-74
2023/07/22 08:47:32;;;;;;;6.03;3.17;;;;;;;21.09;70.85;100520.97;5146157;28;20039;-74
2023/07/22 08:50:06;;;;;;;4.85;3.08;;;;;;;21.46;71.10;100518.88;5159462;28;20033;-74
2023/07/22 08:52:37;;;;;;;6.97;3.20;;;;;;;22.09;70.49;100516.28;5165068;28;20022;-75
2023/07/22 08:55:10;;;;;;;6.22;3.13;;;;;;;22.64;68.50;100516.84;5164320;28;20034;-74
2023/07/22 08:57:41;;;;;;;9.23;3.85;;;;;;;22.18;68.53;100516.34;5159593;28;20037;-73
2023/07/22 09:00:12;;;;;;;7.93;3.25;;;;;;;22.56;67.81;100516.63;5169816;28;20476;-74
2023/07/22 09:02:43;;;;;;;8.32;2.75;;;;;;;23.26;67.45;100520.19;5162087;28;20114;-74
2023/07/22 09:05:13;;;;;;;7.15;3.30;;;;;;;23.21;66.34;100517.94;5141071;28;20018;-74
2023/07/22 09:07:43;;;;;;;8.75;3.03;;;;;;;23.08;66.93;100509.31;5162133;28;20061;-74
2023/07/22 09:10:15;;;;;;;4.63;2.90;;;;;;;23.41;65.90;100506.38;5151100;28;20022;-74
2023/07/22 09:12:46;;;;;;;6.13;3.10;;;;;;;23.06;67.24;100515.75;5157577;28;20073;-74
2023/07/22 09:15:18;;;;;;;5.32;3.35;;;;;;;22.70;67.33;100519.78;5153217;28;20037;-74
2023/07/22 09:17:48;;;;;;;6.18;3.55;;;;;;;22.92;67.59;100516.97;5144731;28;20029;-72
2023/07/22 09:20:20;;;;;;;6.95;4.07;;;;;;;22.74;67.36;100505.25;5162224;28;20194;-74
2023/07/22 09:22:51;;;;;;;7.07;4.25;;;;;;;22.37;66.91;100510.28;5156217;28;20055;-74
2023/07/22 09:25:24;;;;;;;5.95;3.92;;;;;;;23.27;67.46;100509.41;5159508;28;20523;-74
2023/07/22 09:27:58;;;;;;;7.90;4.53;;;;;;;23.65;65.10;100503.28;5131041;28;20038;-74
2023/07/22 09:30:31;;;;;;;6.65;4.03;;;;;;;22.57;66.96;100512.16;5142143;28;20121;-73
2023/07/22 09:33:03;;;;;;;7.15;4.32;;;;;;;21.89;68.91;100514.44;5154624;28;20052;-74
2023/07/22 09:35:47;;;;;;;7.50;4.03;;;;;;;21.36;71.39;100521.44;5126764;28;20226;-73
2023/07/22 09:38:24;;;;;;;7.85;4.43;;;;;;;20.81;74.10;100517.94;5156806;28;20536;-74
2023/07/22 09:40:55;;;;;;;10.50;4.53;;;;;;;20.79;74.02;100503.94;5143331;28;20065;-74
2023/07/22 09:43:26;;;;;;;7.60;4.82;;;;;;;21.08;74.94;100507.81;5161886;28;20479;-73
2023/07/22 09:46:10;;;;;;;7.53;4.53;;;;;;;21.57;72.95;100502.91;5151628;28;20121;-72
2023/07/22 09:48:45;;;;;;;8.32;4.65;;;;;;;21.54;73.11;100503.16;5156632;28;20033;-73
2023/07/22 09:51:16;;;;;;;7.47;4.53;;;;;;;21.64;73.31;100504.13;5126221;28;20067;-74
2023/07/22 09:54:00;;;;;;;8.13;4.75;;;;;;;21.42;74.40;100506.81;5159276;28;20124;-73
2023/07/22 09:56:32;;;;;;;8.20;4.90;;;;;;;21.14;76.32;100504.66;5161569;28;20530;-72
2023/07/22 09:59:05;;;;;;;9.10;5.07;;;;;;;21.04;75.77;100503.72;5132894;28;20412;-74
2023/07/22 10:01:38;;;;;;;7.40;4.75;;;;;;;20.86;77.70;100502.53;5163857;28;20528;-72
2023/07/22 10:04:10;;;;;;;7.78;4.70;;;;;;;20.53;75.46;100502.47;5162487;28;20510;-74
2023/07/22 10:06:42;;;;;;;7.50;4.15;;;;;;;20.92;74.43;100504.69;5157317;28;20097;-73
2023/07/22 10:09:15;;;;;;;8.73;4.97;;;;;;;21.33;73.81;100497.75;5133155;28;20228;-73
2023/07/22 10:11:45;;;;;;;7.20;4.47;;;;;;;22.36;71.39;100495.28;5160662;28;20124;-72
2023/07/22 10:14:17;;;;;;;7.40;4.28;;;;;;;23.03;72.24;100490.19;5166763;28;20483;-74
2023/07/22 10:16:48;;;;;;;11.38;4.85;;;;;;;22.67;70.64;100483.72;5163439;28;20046;-72
2023/07/22 10:19:18;;;;;;;7.38;3.90;;;;;;;23.03;69.37;100484.03;5161464;28;20028;-74
2023/07/22 10:21:49;;;;;;;6.47;3.58;;;;;;;23.28;71.66;100475.56;5165221;28;20506;-72
2023/07/22 10:24:21;;;;;;;7.80;4.57;;;;;;;22.94;71.05;100480.34;5138539;28;20022;-74
2023/07/22 10:26:52;;;;;;;7.18;4.47;;;;;;;22.18;70.46;100484.41;5156683;28;20133;-73
2023/07/22 10:29:25;;;;;;;6.82;3.55;;;;;;;22.64;70.76;100484.00;5164096;28;20636;-73
2023/07/22 10:31:55;;;;;;;6.60;3.80;;;;;;;22.83;73.65;100477.78;5142976;28;20058;-71
2023/07/22 10:34:26;;;;;;;7.35;3.78;;;;;;;22.83;71.52;100479.59;5143359;28;20022;-73
2023/07/22 10:36:58;;;;;;;7.32;3.25;;;;;;;23.47;73.38;100473.78;5137922;28;20221;-72
2023/07/22 10:39:28;;;;;;;6.55;3.60;;;;;;;23.38;70.39;100471.09;5161797;28;20087;-72
2023/07/22 10:42:04;;;;;;;6.03;3.20;;;;;;;22.99;68.67;100467.44;5153787;28;20439;-74
2023/07/22 10:44:38;;;;;;;;;;;;;;;23.30;69.09;100471.78;5159215;28;20068;-71
2023/07/22 10:47:08;;;;;;;5.10;3.10;;;;;;;23.94;67.70;100478.34;5147144;28;20396;-74
2023/07/22 10:49:45;;;;;;;9.52;3.00;;;;;;;23.29;71.25;100472.78;5158548;28;20031;-72
2023/07/22 10:52:39;;;;;;;6.25;3.35;;;;;;;22.17;70.04;100473.88;5151846;28;20138;-71
2023/07/22 10:55:17;;;;;;;5.47;3.13;;;;;;;21.95;70.73;100482.81;5157396;28;20498;-73
2023/07/22 10:57:55;;;;;;;7.75;3.42;;;;;;;21.39;73.25;100488.44;5143298;28;20039;-71
2023/07/22 11:00:29;;;;;;;6.85;3.35;;;;;;;21.41;74.34;100486.50;5166068;28;20395;-73
2023/07/22 11:03:10;;;;;;;5.20;3.53;;;;;;;21.88;73.38;100470.16;5158715;28;20038;-73
2023/07/22 11:05:55;;;;;;;5.03;3.03;;;;;;;22.24;71.39;100464.41;5146699;28;20045;-73
2023/07/22 11:08:41;;;;;;;4.93;2.88;;;;;;;21.99;71.49;100462.09;5166611;28;20041;-73
2023/07/22 11:11:12;;;;;;;5.32;3.20;;;;;;;21.95;70.34;100460.69;5127337;28;20053;-74
2023/07/22 11:13:43;;;;;;;6.07;2.75;;;;;;;21.88;68.90;100452.38;5160379;28;20519;-71
2023/07/22 11:16:13;;;;;;;4.78;2.60;;;;;;;21.73;71.04;100460.78;5153541;28;20034;-74
2023/07/22 11:18:43;;;;;;;5.20;3.20;;;;;;;21.32;73.37;100460.63;5150427;28;20054;-71
2023/07/22 11:21:14;;;;;;;4.63;2.50;;;;;;;20.82;77.88;100466.47;5150923;28;20017;-72
2023/07/22 11:23:44;;;;;;;4.97;2.73;;;;;;;20.86;75.47;100460.84;5149157;28;20301;-73
2023/07/22 11:26:15;;;;;;;4.20;2.53;;;;;;;21.07;73.99;100458.28;5158767;28;20305;-73
2023/07/22 11:28:46;;;;;;;4.07;2.58;;;;;;;21.71;72.44;100446.78;5168874;28;20303;-73
2023/07/22 11:31:16;;;;;;;4.20;2.53;;;;;;;21.94;72.71;100440.38;5151839;28;20026;-73
2023/07/22 11:33:47;;;;;;;5.32;2.80;;;;;;;22.05;72.38;100435.81;5159909;28;20052;-74
2023/07/22 11:36:17;;;;;;;5.05;2.60;;;;;;;21.88;69.64;100428.41;5154057;28;20570;-73
2023/07/22 11:38:47;;;;;;;4.53;2.43;;;;;;;21.97;68.06;100432.97;5162276;28;20455;-71